sensor_id;sensor_type;location;lat;lon;timestamp;pressure;altitude;pressure_sealevel;temperature;humidity
24558;BME280;12726;49.148;8.582;2022-07-30T00:02:02;100410.28;;;20.09;62.10
24558;BME280;12726;49.148;8.582;2022-07-30T00:04:48;100408.63;;;20.13;62.36
24558;BME280;12726;49.148;8.582;2022-07-30T00:07:33;100410.25;;;20.14;62.14
24558;BME280;12726;49.148;8.582;2022-07-30T00:10:19;100414.09;;;20.03;61.87
24558;BME280;12726;49.148;8.582;2022-07-30T00:13:05;100411.91;;;19.94;62.45
24558;BME280;12726;49.148;8.582;2022-07-30T00:15:51;100405.09;;;19.87;62.94
24558;BME280;12726;49.148;8.582;2022-07-30T00:18:37;100402.63;;;19.75;63.30
24558;BME280;12726;49.148;8.582;2022-07-30T00:21:23;100407.28;;;19.65;64.00
24558;BME280;12726;49.148;8.582;2022-07-30T00:24:09;100404.25;;;19.61;64.22
24558;BME280;12726;49.148;8.582;2022-07-30T00:26:54;100394.97;;;19.57;64.36
24558;BME280;12726;49.148;8.582;2022-07-30T00:29:40;100399.06;;;19.54;64.75
24558;BME280;12726;49.148;8.582;2022-07-30T00:32:25;100390.00;;;19.44;65.27
24558;BME280;12726;49.148;8.582;2022-07-30T00:35:12;100393.56;;;19.39;65.04
24558;BME280;12726;49.148;8.582;2022-07-30T00:37:57;100393.81;;;19.33;65.48
24558;BME280;12726;49.148;8.582;2022-07-30T00:40:43;100398.72;;;19.31;65.56
24558;BME280;12726;49.148;8.582;2022-07-30T00:43:30;100397.09;;;19.25;65.61
24558;BME280;12726;49.148;8.582;2022-07-30T00:46:15;100386.44;;;19.18;65.88
24558;BME280;12726;49.148;8.582;2022-07-30T00:49:01;100399.78;;;19.20;65.75
24558;BME280;12726;49.148;8.582;2022-07-30T00:51:48;100399.25;;;19.17;66.23
24558;BME280;12726;49.148;8.582;2022-07-30T00:54:34;100397.59;;;19.16;66.21
24558;BME280;12726;49.148;8.582;2022-07-30T00:57:19;100395.66;;;19.07;66.63
24558;BME280;12726;49.148;8.582;2022-07-30T01:00:07;100392.38;;;19.00;66.82
24558;BME280;12726;49.148;8.582;2022-07-30T01:02:53;100393.97;;;18.91;66.86
24558;BME280;12726;49.148;8.582;2022-07-30T01:05:39;100397.50;;;18.81;67.80
24558;BME280;12726;49.148;8.582;2022-07-30T01:08:26;100399.38;;;18.75;68.08
24558;BME280;12726;49.148;8.582;2022-07-30T01:11:11;100393.38;;;18.73;68.24
24558;BME280;12726;49.148;8.582;2022-07-30T01:13:57;100385.44;;;18.72;67.97
24558;BME280;12726;49.148;8.582;2022-07-30T01:16:43;100386.28;;;18.72;68.43
24558;BME280;12726;49.148;8.582;2022-07-30T01:19:30;100378.34;;;18.66;68.33
24558;BME280;12726;49.148;8.582;2022-07-30T01:22:44;100377.53;;;18.70;68.45
24558;BME280;12726;49.148;8.582;2022-07-30T01:25:50;100381.63;;;18.68;68.31
24558;BME280;12726;49.148;8.582;2022-07-30T01:28:40;100376.59;;;18.55;68.73
24558;BME280;12726;49.148;8.582;2022-07-30T01:31:27;100385.91;;;18.54;69.00
24558;BME280;12726;49.148;8.582;2022-07-30T01:34:13;100389.91;;;18.41;69.68
24558;BME280;12726;49.148;8.582;2022-07-30T01:37:01;100389.03;;;18.30;70.24
24558;BME280;12726;49.148;8.582;2022-07-30T01:39:48;100386.31;;;18.30;70.39
24558;BME280;12726;49.148;8.582;2022-07-30T01:42:37;100387.69;;;18.33;70.26
24558;BME280;12726;49.148;8.582;2022-07-30T01:45:25;100390.63;;;18.26;70.59
24558;BME280;12726;49.148;8.582;2022-07-30T01:48:14;100393.03;;;18.18;71.09
24558;BME280;12726;49.148;8.582;2022-07-30T01:51:03;100390.03;;;18.19;71.26
24558;BME280;12726;49.148;8.582;2022-07-30T01:53:50;100393.59;;;18.20;71.38
24558;BME280;12726;49.148;8.582;2022-07-30T01:56:37;100402.81;;;18.14;71.55
24558;BME280;12726;49.148;8.582;2022-07-30T01:59:27;100398.97;;;18.10;71.92
24558;BME280;12726;49.148;8.582;2022-07-30T02:02:14;100403.53;;;17.99;72.49
24558;BME280;12726;49.148;8.582;2022-07-30T02:04:59;100399.94;;;17.93;72.64
24558;BME280;12726;49.148;8.582;2022-07-30T02:07:49;100404.50;;;17.83;73.14
24558;BME280;12726;49.148;8.582;2022-07-30T02:10:41;100406.91;;;17.79;73.26
24558;BME280;12726;49.148;8.582;2022-07-30T02:13:28;100412.06;;;17.76;73.64
24558;BME280;12726;49.148;8.582;2022-07-30T02:16:20;100409.59;;;17.74;73.86
24558;BME280;12726;49.148;8.582;2022-07-30T02:19:10;100418.28;;;17.71;73.75
24558;BME280;12726;49.148;8.582;2022-07-30T02:22:02;100417.72;;;17.69;73.97
24558;BME280;12726;49.148;8.582;2022-07-30T02:24:49;100418.75;;;17.63;74.15
24558;BME280;12726;49.148;8.582;2022-07-30T02:27:38;100427.19;;;17.62;74.16
24558;BME280;12726;49.148;8.582;2022-07-30T02:30:26;100412.75;;;17.61;74.15
24558;BME280;12726;49.148;8.582;2022-07-30T02:33:18;100422.78;;;17.60;74.43
24558;BME280;12726;49.148;8.582;2022-07-30T02:36:06;100431.47;;;17.57;74.20
24558;BME280;12726;49.148;8.582;2022-07-30T02:38:53;100425.78;;;17.59;74.26
24558;BME280;12726;49.148;8.582;2022-07-30T02:41:41;100437.47;;;17.59;74.06
24558;BME280;12726;49.148;8.582;2022-07-30T02:44:28;100438.81;;;17.57;74.11
24558;BME280;12726;49.148;8.582;2022-07-30T02:47:15;100439.88;;;17.56;73.89
24558;BME280;12726;49.148;8.582;2022-07-30T02:50:03;100438.16;;;17.45;74.16
24558;BME280;12726;49.148;8.582;2022-07-30T02:52:51;100447.97;;;17.46;74.19
24558;BME280;12726;49.148;8.582;2022-07-30T02:55:39;100457.69;;;17.42;74.40
24558;BME280;12726;49.148;8.582;2022-07-30T02:58:27;100453.81;;;17.33;74.49
24558;BME280;12726;49.148;8.582;2022-07-30T03:01:15;100454.06;;;17.31;74.62
24558;BME280;12726;49.148;8.582;2022-07-30T03:04:03;100447.59;;;17.37;73.92
24558;BME280;12726;49.148;8.582;2022-07-30T03:06:50;100454.94;;;17.37;74.00
24558;BME280;12726;49.148;8.582;2022-07-30T03:09:38;100448.72;;;17.41;73.66
24558;BME280;12726;49.148;8.582;2022-07-30T03:12:28;100442.97;;;17.38;73.71
24558;BME280;12726;49.148;8.582;2022-07-30T03:15:14;100448.91;;;17.35;73.84
24558;BME280;12726;49.148;8.582;2022-07-30T03:18:00;100449.44;;;17.32;73.71
24558;BME280;12726;49.148;8.582;2022-07-30T03:20:51;100444.00;;;17.32;73.78
24558;BME280;12726;49.148;8.582;2022-07-30T03:23:39;100450.78;;;17.29;73.81
24558;BME280;12726;49.148;8.582;2022-07-30T03:26:26;100456.78;;;17.31;73.36
24558;BME280;12726;49.148;8.582;2022-07-30T03:29:13;100461.66;;;17.29;73.74
24558;BME280;12726;49.148;8.582;2022-07-30T03:31:59;100460.53;;;17.25;73.54
24558;BME280;12726;49.148;8.582;2022-07-30T03:34:46;100459.19;;;17.28;73.60
24558;BME280;12726;49.148;8.582;2022-07-30T03:37:34;100469.56;;;17.31;73.41
24558;BME280;12726;49.148;8.582;2022-07-30T03:40:22;100462.22;;;17.31;73.22
24558;BME280;12726;49.148;8.582;2022-07-30T03:43:08;100469.31;;;17.32;73.38
24558;BME280;12726;49.148;8.582;2022-07-30T03:45:56;100471.41;;;17.25;73.75
24558;BME280;12726;49.148;8.582;2022-07-30T03:48:43;100473.84;;;17.27;73.89
24558;BME280;12726;49.148;8.582;2022-07-30T03:51:30;100472.50;;;17.24;74.14
24558;BME280;12726;49.148;8.582;2022-07-30T03:54:16;100478.75;;;17.25;74.82
24558;BME280;12726;49.148;8.582;2022-07-30T03:57:04;100477.94;;;17.24;75.13
24558;BME280;12726;49.148;8.582;2022-07-30T03:59:49;100483.81;;;17.16;75.26
24558;BME280;12726;49.148;8.582;2022-07-30T04:02:40;100483.44;;;17.07;75.96
24558;BME280;12726;49.148;8.582;2022-07-30T04:05:26;100485.91;;;17.09;76.50
24558;BME280;12726;49.148;8.582;2022-07-30T04:08:11;100486.34;;;17.01;76.37
24558;BME280;12726;49.148;8.582;2022-07-30T04:10:57;100493.94;;;16.99;76.90
24558;BME280;12726;49.148;8.582;2022-07-30T04:13:43;100488.19;;;16.95;77.28
24558;BME280;12726;49.148;8.582;2022-07-30T04:16:36;100498.03;;;17.01;76.94
24558;BME280;12726;49.148;8.582;2022-07-30T04:19:24;100500.47;;;16.98;77.31
24558;BME280;12726;49.148;8.582;2022-07-30T04:22:12;100496.34;;;16.95;77.42
24558;BME280;12726;49.148;8.582;2022-07-30T04:24:59;100497.66;;;16.93;77.44
24558;BME280;12726;49.148;8.582;2022-07-30T04:27:45;100505.91;;;16.98;77.57
24558;BME280;12726;49.148;8.582;2022-07-30T04:30:32;100512.47;;;17.02;77.43
24558;BME280;12726;49.148;8.582;2022-07-30T04:33:18;100516.50;;;16.99;77.60
24558;BME280;12726;49.148;8.582;2022-07-30T04:36:05;100522.28;;;17.03;77.65
24558;BME280;12726;49.148;8.582;2022-07-30T04:38:51;100518.78;;;17.07;77.57
24558;BME280;12726;49.148;8.582;2022-07-30T04:41:37;100530.31;;;17.14;77.41
24558;BME280;12726;49.148;8.582;2022-07-30T04:44:22;100539.69;;;17.23;77.00
24558;BME280;12726;49.148;8.582;2022-07-30T04:47:10;100529.94;;;17.28;76.94
24558;BME280;12726;49.148;8.582;2022-07-30T04:49:56;100542.28;;;17.35;76.65
24558;BME280;12726;49.148;8.582;2022-07-30T04:52:42;100530.50;;;17.51;75.91
24558;BME280;12726;49.148;8.582;2022-07-30T04:55:27;100534.63;;;17.54;75.91
24558;BME280;12726;49.148;8.582;2022-07-30T04:58:15;100541.59;;;17.67;75.15
24558;BME280;12726;49.148;8.582;2022-07-30T05:01:03;100543.41;;;17.83;74.17
24558;BME280;12726;49.148;8.582;2022-07-30T05:03:51;100546.22;;;17.93;73.87
24558;BME280;12726;49.148;8.582;2022-07-30T05:06:37;100540.50;;;17.94;73.91
24558;BME280;12726;49.148;8.582;2022-07-30T05:09:24;100539.50;;;18.06;73.60
24558;BME280;12726;49.148;8.582;2022-07-30T05:12:10;100551.63;;;18.20;72.82
24558;BME280;12726;49.148;8.582;2022-07-30T05:14:55;100548.50;;;18.33;72.15
24558;BME280;12726;49.148;8.582;2022-07-30T05:17:41;100544.78;;;18.49;71.94
24558;BME280;12726;49.148;8.582;2022-07-30T05:20:29;100548.47;;;18.60;71.00
24558;BME280;12726;49.148;8.582;2022-07-30T05:23:15;100550.16;;;18.71;70.47
24558;BME280;12726;49.148;8.582;2022-07-30T05:26:00;100548.38;;;18.87;69.79
24558;BME280;12726;49.148;8.582;2022-07-30T05:28:46;100553.91;;;18.97;69.11
24558;BME280;12726;49.148;8.582;2022-07-30T05:31:31;100556.69;;;19.12;67.40
24558;BME280;12726;49.148;8.582;2022-07-30T05:34:17;100558.38;;;19.18;68.03
24558;BME280;12726;49.148;8.582;2022-07-30T05:37:04;100565.50;;;19.24;67.62
24558;BME280;12726;49.148;8.582;2022-07-30T05:39:50;100563.38;;;19.41;67.10
24558;BME280;12726;49.148;8.582;2022-07-30T05:42:35;100567.22;;;19.45;66.16
24558;BME280;12726;49.148;8.582;2022-07-30T05:45:21;100565.13;;;19.58;66.34
24558;BME280;12726;49.148;8.582;2022-07-30T05:48:07;100562.13;;;19.69;65.47
24558;BME280;12726;49.148;8.582;2022-07-30T05:50:52;100560.00;;;19.86;64.28
24558;BME280;12726;49.148;8.582;2022-07-30T05:53:39;100568.75;;;20.04;63.53
24558;BME280;12726;49.148;8.582;2022-07-30T05:56:24;100564.97;;;20.20;63.24
24558;BME280;12726;49.148;8.582;2022-07-30T05:59:10;100566.38;;;20.43;62.43
24558;BME280;12726;49.148;8.582;2022-07-30T06:01:55;100563.09;;;20.66;61.16
24558;BME280;12726;49.148;8.582;2022-07-30T06:04:40;100560.63;;;20.75;61.31
24558;BME280;12726;49.148;8.582;2022-07-30T06:07:26;100564.66;;;20.97;59.87
24558;BME280;12726;49.148;8.582;2022-07-30T06:10:13;100570.38;;;21.11;59.90
24558;BME280;12726;49.148;8.582;2022-07-30T06:12:58;100573.69;;;21.23;58.61
24558;BME280;12726;49.148;8.582;2022-07-30T06:15:43;100578.56;;;21.36;58.62
24558;BME280;12726;49.148;8.582;2022-07-30T06:18:29;100581.25;;;21.52;58.98
24558;BME280;12726;49.148;8.582;2022-07-30T06:21:14;100580.59;;;21.70;58.54
24558;BME280;12726;49.148;8.582;2022-07-30T06:24:00;100577.78;;;21.85;57.99
24558;BME280;12726;49.148;8.582;2022-07-30T06:26:47;100574.66;;;22.07;56.14
24558;BME280;12726;49.148;8.582;2022-07-30T06:29:32;100573.53;;;22.13;55.14
24558;BME280;12726;49.148;8.582;2022-07-30T06:32:18;100576.97;;;22.29;56.11
24558;BME280;12726;49.148;8.582;2022-07-30T06:35:04;100580.75;;;22.72;54.51
24558;BME280;12726;49.148;8.582;2022-07-30T06:37:50;100581.59;;;22.96;52.30
24558;BME280;12726;49.148;8.582;2022-07-30T06:40:35;100590.41;;;23.22;52.54
24558;BME280;12726;49.148;8.582;2022-07-30T06:43:22;100594.03;;;23.41;51.96
24558;BME280;12726;49.148;8.582;2022-07-30T06:46:08;100596.00;;;23.83;51.36
24558;BME280;12726;49.148;8.582;2022-07-30T06:48:53;100592.00;;;24.32;49.60
24558;BME280;12726;49.148;8.582;2022-07-30T06:51:39;100603.25;;;24.68;48.00
24558;BME280;12726;49.148;8.582;2022-07-30T06:54:24;100593.31;;;24.85;46.69
24558;BME280;12726;49.148;8.582;2022-07-30T06:57:09;100594.09;;;25.05;46.77
24558;BME280;12726;49.148;8.582;2022-07-30T06:59:56;100589.81;;;25.40;46.08
24558;BME280;12726;49.148;8.582;2022-07-30T07:02:42;100595.94;;;25.36;45.40
24558;BME280;12726;49.148;8.582;2022-07-30T07:05:27;100587.78;;;25.72;44.52
24558;BME280;12726;49.148;8.582;2022-07-30T07:08:15;100581.81;;;25.93;44.35
24558;BME280;12726;49.148;8.582;2022-07-30T07:11:01;100595.50;;;25.98;44.12
24558;BME280;12726;49.148;8.582;2022-07-30T07:13:46;100599.28;;;26.38;44.37
24558;BME280;12726;49.148;8.582;2022-07-30T07:16:33;100595.81;;;26.32;42.76
24558;BME280;12726;49.148;8.582;2022-07-30T07:19:19;100599.28;;;26.38;43.65
24558;BME280;12726;49.148;8.582;2022-07-30T07:22:05;100597.63;;;26.59;42.46
24558;BME280;12726;49.148;8.582;2022-07-30T07:24:50;100586.78;;;26.63;42.42
24558;BME280;12726;49.148;8.582;2022-07-30T07:27:36;100591.41;;;26.76;40.90
24558;BME280;12726;49.148;8.582;2022-07-30T07:30:21;100595.72;;;27.21;41.01
24558;BME280;12726;49.148;8.582;2022-07-30T07:33:09;100603.25;;;27.69;39.70
24558;BME280;12726;49.148;8.582;2022-07-30T07:35:54;100603.84;;;28.23;39.62
24558;BME280;12726;49.148;8.582;2022-07-30T07:38:40;100599.56;;;27.43;40.57
24558;BME280;12726;49.148;8.582;2022-07-30T07:41:25;100593.28;;;26.89;41.79
24558;BME280;12726;49.148;8.582;2022-07-30T07:44:11;100606.94;;;26.41;42.83
24558;BME280;12726;49.148;8.582;2022-07-30T07:46:57;100603.91;;;26.15;42.56
24558;BME280;12726;49.148;8.582;2022-07-30T07:49:43;100595.22;;;26.22;43.53
24558;BME280;12726;49.148;8.582;2022-07-30T07:52:29;100598.16;;;26.61;41.95
24558;BME280;12726;49.148;8.582;2022-07-30T07:55:14;100593.72;;;26.82;41.90
24558;BME280;12726;49.148;8.582;2022-07-30T07:58:00;100602.91;;;27.62;40.05
24558;BME280;12726;49.148;8.582;2022-07-30T08:00:45;100600.53;;;27.95;40.83
24558;BME280;12726;49.148;8.582;2022-07-30T08:03:31;100600.56;;;28.38;38.30
24558;BME280;12726;49.148;8.582;2022-07-30T08:06:18;100598.75;;;28.68;38.80
24558;BME280;12726;49.148;8.582;2022-07-30T08:09:03;100595.34;;;28.54;37.78
24558;BME280;12726;49.148;8.582;2022-07-30T08:11:49;100590.59;;;28.80;36.94
24558;BME280;12726;49.148;8.582;2022-07-30T08:14:34;100586.69;;;28.72;37.46
24558;BME280;12726;49.148;8.582;2022-07-30T08:17:20;100586.88;;;29.23;36.63
24558;BME280;12726;49.148;8.582;2022-07-30T08:20:06;100593.84;;;29.37;35.75
24558;BME280;12726;49.148;8.582;2022-07-30T08:22:53;100587.00;;;29.64;35.42
24558;BME280;12726;49.148;8.582;2022-07-30T08:25:38;100584.09;;;29.61;35.09
24558;BME280;12726;49.148;8.582;2022-07-30T08:28:24;100596.47;;;29.63;35.30
24558;BME280;12726;49.148;8.582;2022-07-30T08:31:10;100591.28;;;29.62;35.70
24558;BME280;12726;49.148;8.582;2022-07-30T08:33:55;100590.28;;;29.66;33.88
24558;BME280;12726;49.148;8.582;2022-07-30T08:36:41;100584.59;;;29.63;33.75
24558;BME280;12726;49.148;8.582;2022-07-30T08:39:27;100587.19;;;29.21;34.29
24558;BME280;12726;49.148;8.582;2022-07-30T08:42:13;100587.16;;;29.30;34.80
24558;BME280;12726;49.148;8.582;2022-07-30T08:44:59;100571.59;;;30.05;34.38
24558;BME280;12726;49.148;8.582;2022-07-30T08:47:45;100577.88;;;30.14;33.00
24558;BME280;12726;49.148;8.582;2022-07-30T08:50:34;100584.41;;;30.84;32.02
24558;BME280;12726;49.148;8.582;2022-07-30T08:53:20;100579.16;;;31.15;31.89
24558;BME280;12726;49.148;8.582;2022-07-30T08:56:07;100582.75;;;31.16;31.43
24558;BME280;12726;49.148;8.582;2022-07-30T08:58:53;100575.75;;;30.52;33.36
24558;BME280;12726;49.148;8.582;2022-07-30T09:01:39;100580.56;;;31.09;31.66
24558;BME280;12726;49.148;8.582;2022-07-30T09:04:24;100572.97;;;30.52;32.49
24558;BME280;12726;49.148;8.582;2022-07-30T09:07:10;100573.19;;;30.92;32.89
24558;BME280;12726;49.148;8.582;2022-07-30T09:09:56;100573.00;;;30.64;32.14
24558;BME280;12726;49.148;8.582;2022-07-30T09:12:44;100568.06;;;30.16;31.81
24558;BME280;12726;49.148;8.582;2022-07-30T09:15:30;100576.25;;;30.33;29.65
24558;BME280;12726;49.148;8.582;2022-07-30T09:18:26;100583.31;;;29.81;30.44
24558;BME280;12726;49.148;8.582;2022-07-30T09:21:17;100580.16;;;29.41;29.72
24558;BME280;12726;49.148;8.582;2022-07-30T09:24:05;100577.94;;;28.19;31.29
24558;BME280;12726;49.148;8.582;2022-07-30T09:26:54;100582.97;;;28.77;32.70
24558;BME280;12726;49.148;8.582;2022-07-30T09:29:42;100582.47;;;30.10;30.84
24558;BME280;12726;49.148;8.582;2022-07-30T09:32:46;100579.53;;;30.48;28.48
24558;BME280;12726;49.148;8.582;2022-07-30T09:35:32;100574.00;;;30.81;28.04
24558;BME280;12726;49.148;8.582;2022-07-30T09:38:17;100571.88;;;31.59;27.80
24558;BME280;12726;49.148;8.582;2022-07-30T09:41:03;100574.25;;;31.00;28.44
24558;BME280;12726;49.148;8.582;2022-07-30T09:43:50;100567.91;;;30.33;29.56
24558;BME280;12726;49.148;8.582;2022-07-30T09:46:42;100570.13;;;31.06;28.42
24558;BME280;12726;49.148;8.582;2022-07-30T09:49:30;100575.34;;;31.44;29.34
24558;BME280;12726;49.148;8.582;2022-07-30T09:52:26;100568.97;;;31.07;28.89
24558;BME280;12726;49.148;8.582;2022-07-30T09:55:13;100571.88;;;30.78;30.08
24558;BME280;12726;49.148;8.582;2022-07-30T09:58:00;100560.97;;;31.05;28.51
24558;BME280;12726;49.148;8.582;2022-07-30T10:00:46;100567.78;;;30.96;29.74
24558;BME280;12726;49.148;8.582;2022-07-30T10:03:33;100563.88;;;31.70;28.86
24558;BME280;12726;49.148;8.582;2022-07-30T10:06:31;100583.66;;;32.45;27.87
24558;BME280;12726;49.148;8.582;2022-07-30T10:09:24;100562.94;;;31.29;28.35
24558;BME280;12726;49.148;8.582;2022-07-30T10:12:12;100563.34;;;30.95;29.82
24558;BME280;12726;49.148;8.582;2022-07-30T10:14:59;100554.94;;;30.05;29.74
24558;BME280;12726;49.148;8.582;2022-07-30T10:17:46;100553.72;;;29.64;31.25
24558;BME280;12726;49.148;8.582;2022-07-30T10:20:34;100551.75;;;29.35;32.07
24558;BME280;12726;49.148;8.582;2022-07-30T10:23:20;100553.56;;;29.31;32.62
24558;BME280;12726;49.148;8.582;2022-07-30T10:26:07;100555.59;;;29.51;31.67
24558;BME280;12726;49.148;8.582;2022-07-30T10:28:52;100556.63;;;29.00;32.52
24558;BME280;12726;49.148;8.582;2022-07-30T10:31:38;100539.97;;;28.36;33.71
24558;BME280;12726;49.148;8.582;2022-07-30T10:34:23;100550.28;;;28.27;34.96
24558;BME280;12726;49.148;8.582;2022-07-30T10:37:11;100529.91;;;28.23;34.33
24558;BME280;12726;49.148;8.582;2022-07-30T10:40:03;100541.47;;;28.34;35.08
24558;BME280;12726;49.148;8.582;2022-07-30T10:43:13;100534.44;;;28.28;35.27
24558;BME280;12726;49.148;8.582;2022-07-30T10:46:05;100533.31;;;27.77;35.80
24558;BME280;12726;49.148;8.582;2022-07-30T10:48:53;100541.25;;;27.61;36.51
24558;BME280;12726;49.148;8.582;2022-07-30T10:51:45;100547.88;;;27.52;37.28
24558;BME280;12726;49.148;8.582;2022-07-30T10:54:36;100547.50;;;27.36;35.94
24558;BME280;12726;49.148;8.582;2022-07-30T10:57:22;100524.25;;;27.46;34.07
24558;BME280;12726;49.148;8.582;2022-07-30T11:00:09;100532.31;;;27.82;34.54
24558;BME280;12726;49.148;8.582;2022-07-30T11:03:17;100524.41;;;28.78;33.40
24558;BME280;12726;49.148;8.582;2022-07-30T11:06:24;100533.16;;;29.36;31.92
24558;BME280;12726;49.148;8.582;2022-07-30T11:09:37;100535.50;;;29.25;31.60
24558;BME280;12726;49.148;8.582;2022-07-30T11:12:51;100529.72;;;30.43;32.23
24558;BME280;12726;49.148;8.582;2022-07-30T11:15:56;100522.94;;;31.34;29.43
24558;BME280;12726;49.148;8.582;2022-07-30T11:19:07;100528.84;;;31.57;28.30
24558;BME280;12726;49.148;8.582;2022-07-30T11:22:23;100532.31;;;30.27;29.50
24558;BME280;12726;49.148;8.582;2022-07-30T11:25:39;100527.72;;;29.48;31.15
24558;BME280;12726;49.148;8.582;2022-07-30T11:28:33;100529.38;;;29.11;31.88
24558;BME280;12726;49.148;8.582;2022-07-30T11:31:30;100524.47;;;29.46;31.25
24558;BME280;12726;49.148;8.582;2022-07-30T11:34:26;100508.75;;;30.78;30.60
24558;BME280;12726;49.148;8.582;2022-07-30T11:37:13;100514.34;;;31.63;28.88
24558;BME280;12726;49.148;8.582;2022-07-30T11:40:11;100512.94;;;32.09;27.14
24558;BME280;12726;49.148;8.582;2022-07-30T11:43:19;100502.84;;;32.60;26.60
24558;BME280;12726;49.148;8.582;2022-07-30T11:46:07;100504.28;;;31.46;26.44
24558;BME280;12726;49.148;8.582;2022-07-30T11:48:56;100503.81;;;31.44;28.36
24558;BME280;12726;49.148;8.582;2022-07-30T11:51:45;100506.78;;;30.66;28.40
24558;BME280;12726;49.148;8.582;2022-07-30T11:54:31;100501.81;;;30.06;29.28
24558;BME280;12726;49.148;8.582;2022-07-30T11:57:17;100501.22;;;30.66;29.90
24558;BME280;12726;49.148;8.582;2022-07-30T12:00:05;100489.72;;;30.56;27.99
24558;BME280;12726;49.148;8.582;2022-07-30T12:02:51;100491.31;;;30.45;28.31
24558;BME280;12726;49.148;8.582;2022-07-30T12:05:37;100493.06;;;30.16;28.53
24558;BME280;12726;49.148;8.582;2022-07-30T12:08:22;100501.13;;;30.42;28.88
24558;BME280;12726;49.148;8.582;2022-07-30T12:11:09;100499.88;;;30.97;28.34
24558;BME280;12726;49.148;8.582;2022-07-30T12:13:57;100493.03;;;31.43;26.54
24558;BME280;12726;49.148;8.582;2022-07-30T12:16:48;100485.59;;;32.27;26.94
24558;BME280;12726;49.148;8.582;2022-07-30T12:19:42;100485.25;;;32.72;26.20
24558;BME280;12726;49.148;8.582;2022-07-30T12:22:30;100479.59;;;32.41;25.99
24558;BME280;12726;49.148;8.582;2022-07-30T12:25:17;100487.78;;;32.34;25.25
24558;BME280;12726;49.148;8.582;2022-07-30T12:28:03;100484.00;;;32.85;25.38
24558;BME280;12726;49.148;8.582;2022-07-30T12:30:50;100482.72;;;32.67;24.70
24558;BME280;12726;49.148;8.582;2022-07-30T12:33:37;100474.19;;;32.91;24.39
24558;BME280;12726;49.148;8.582;2022-07-30T12:36:24;100473.00;;;32.61;24.85
24558;BME280;12726;49.148;8.582;2022-07-30T12:39:17;100455.69;;;32.24;25.05
24558;BME280;12726;49.148;8.582;2022-07-30T12:42:03;100474.28;;;31.40;26.47
24558;BME280;12726;49.148;8.582;2022-07-30T12:44:49;100468.75;;;31.56;27.08
24558;BME280;12726;49.148;8.582;2022-07-30T12:47:35;100469.28;;;32.13;26.22
24558;BME280;12726;49.148;8.582;2022-07-30T12:50:21;100444.94;;;32.38;25.57
24558;BME280;12726;49.148;8.582;2022-07-30T12:53:06;100450.75;;;32.17;24.60
24558;BME280;12726;49.148;8.582;2022-07-30T12:55:52;100452.94;;;31.84;25.78
24558;BME280;12726;49.148;8.582;2022-07-30T12:58:37;100446.94;;;31.18;26.31
24558;BME280;12726;49.148;8.582;2022-07-30T13:01:38;100447.97;;;31.13;26.58
24558;BME280;12726;49.148;8.582;2022-07-30T13:04:25;100446.34;;;30.88;27.14
24558;BME280;12726;49.148;8.582;2022-07-30T13:07:11;100445.66;;;31.15;26.72
24558;BME280;12726;49.148;8.582;2022-07-30T13:10:07;100434.53;;;30.54;26.94
24558;BME280;12726;49.148;8.582;2022-07-30T13:12:53;100423.22;;;30.26;26.98
24558;BME280;12726;49.148;8.582;2022-07-30T13:15:39;100436.53;;;30.33;28.13
24558;BME280;12726;49.148;8.582;2022-07-30T13:18:24;100431.09;;;30.24;27.71
24558;BME280;12726;49.148;8.582;2022-07-30T13:21:11;100428.56;;;29.78;27.99
24558;BME280;12726;49.148;8.582;2022-07-30T13:23:57;100424.44;;;29.63;28.11
24558;BME280;12726;49.148;8.582;2022-07-30T13:26:42;100425.78;;;29.78;27.57
24558;BME280;12726;49.148;8.582;2022-07-30T13:29:28;100415.75;;;29.85;27.20
24558;BME280;12726;49.148;8.582;2022-07-30T13:32:14;100414.91;;;30.26;26.56
24558;BME280;12726;49.148;8.582;2022-07-30T13:34:59;100425.25;;;30.87;27.02
24558;BME280;12726;49.148;8.582;2022-07-30T13:37:46;100425.84;;;31.17;25.81
24558;BME280;12726;49.148;8.582;2022-07-30T13:40:32;100416.31;;;31.30;27.26
24558;BME280;12726;49.148;8.582;2022-07-30T13:43:18;100417.78;;;31.51;26.13
24558;BME280;12726;49.148;8.582;2022-07-30T13:46:04;100423.50;;;31.31;25.62
24558;BME280;12726;49.148;8.582;2022-07-30T13:48:49;100424.09;;;30.88;25.95
24558;BME280;12726;49.148;8.582;2022-07-30T13:51:35;100414.16;;;30.74;26.17
24558;BME280;12726;49.148;8.582;2022-07-30T13:54:21;100412.50;;;30.98;26.88
24558;BME280;12726;49.148;8.582;2022-07-30T13:57:07;100409.84;;;30.65;27.05
24558;BME280;12726;49.148;8.582;2022-07-30T13:59:52;100398.75;;;30.53;26.87
24558;BME280;12726;49.148;8.582;2022-07-30T14:02:38;100405.91;;;30.78;27.32
24558;BME280;12726;49.148;8.582;2022-07-30T14:05:23;100405.78;;;30.99;26.81
24558;BME280;12726;49.148;8.582;2022-07-30T14:08:09;100398.03;;;30.56;26.84
24558;BME280;12726;49.148;8.582;2022-07-30T14:10:56;100394.81;;;30.09;27.03
24558;BME280;12726;49.148;8.582;2022-07-30T14:13:43;100394.19;;;29.91;26.78
24558;BME280;12726;49.148;8.582;2022-07-30T14:16:28;100392.47;;;29.98;27.19
24558;BME280;12726;49.148;8.582;2022-07-30T14:19:14;100388.94;;;30.10;27.29
24558;BME280;12726;49.148;8.582;2022-07-30T14:21:59;100392.09;;;30.33;28.30
24558;BME280;12726;49.148;8.582;2022-07-30T14:24:45;100396.72;;;30.41;26.73
24558;BME280;12726;49.148;8.582;2022-07-30T14:27:32;100389.13;;;30.50;27.92
24558;BME280;12726;49.148;8.582;2022-07-30T14:30:17;100392.72;;;30.51;27.40
24558;BME280;12726;49.148;8.582;2022-07-30T14:33:03;100387.22;;;30.18;27.61
24558;BME280;12726;49.148;8.582;2022-07-30T14:35:48;100387.00;;;30.35;28.54
24558;BME280;12726;49.148;8.582;2022-07-30T14:38:34;100382.03;;;30.41;27.17